sensor_id;sensor_type;location;lat;lon;timestamp;P1;durP1;ratioP1;P2;durP2;ratioP2
40707;SDS011;26392;42.696;23.350;2022-12-29T00:01:13;39.17;;;20.90;;
40707;SDS011;26392;42.696;23.350;2022-12-29T00:03:39;40.17;;;17.95;;
40707;SDS011;26392;42.696;23.350;2022-12-29T00:06:04;56.42;;;21.27;;
40707;SDS011;26392;42.696;23.350;2022-12-29T00:08:30;61.17;;;24.42;;
40707;SDS011;26392;42.696;23.350;2022-12-29T00:11:08;57.33;;;22.92;;
40707;SDS011;26392;42.696;23.350;2022-12-29T00:13:36;50.00;;;21.00;;
40707;SDS011;26392;42.696;23.350;2022-12-29T00:16:20;39.63;;;15.10;;
40707;SDS011;26392;42.696;23.350;2022-12-29T00:18:45;40.22;;;18.48;;
40707;SDS011;26392;42.696;23.350;2022-12-29T00:21:15;46.60;;;18.23;;
40707;SDS011;26392;42.696;23.350;2022-12-29T00:24:03;46.63;;;18.88;;
40707;SDS011;26392;42.696;23.350;2022-12-29T00:26:49;40.03;;;18.23;;
40707;SDS011;26392;42.696;23.350;2022-12-29T00:29:40;42.67;;;19.08;;
40707;SDS011;26392;42.696;23.350;2022-12-29T00:32:24;40.03;;;18.08;;
40707;SDS011;26392;42.696;23.350;2022-12-29T00:35:09;42.78;;;18.48;;
40707;SDS011;26392;42.696;23.350;2022-12-29T00:37:37;43.33;;;18.63;;
40707;SDS011;26392;42.696;23.350;2022-12-29T00:40:24;40.85;;;19.10;;
40707;SDS011;26392;42.696;23.350;2022-12-29T00:43:08;41.15;;;19.42;;
40707;SDS011;26392;42.696;23.350;2022-12-29T00:45:52;41.83;;;19.23;;
40707;SDS011;26392;42.696;23.350;2022-12-29T00:48:18;43.20;;;19.55;;
40707;SDS011;26392;42.696;23.350;2022-12-29T00:51:02;40.22;;;19.27;;
40707;SDS011;26392;42.696;23.350;2022-12-29T00:53:27;38.72;;;18.70;;
40707;SDS011;26392;42.696;23.350;2022-12-29T00:55:52;38.35;;;18.70;;
40707;SDS011;26392;42.696;23.350;2022-12-29T00:58:18;36.33;;;17.25;;
40707;SDS011;26392;42.696;23.350;2022-12-29T01:00:43;36.20;;;16.45;;
40707;SDS011;26392;42.696;23.350;2022-12-29T01:03:09;29.83;;;15.73;;
40707;SDS011;26392;42.696;23.350;2022-12-29T01:05:37;26.65;;;15.55;;
40707;SDS011;26392;42.696;23.350;2022-12-29T01:08:02;35.67;;;16.95;;
40707;SDS011;26392;42.696;23.350;2022-12-29T01:10:28;29.80;;;14.73;;
40707;SDS011;26392;42.696;23.350;2022-12-29T01:12:53;29.55;;;14.73;;
40707;SDS011;26392;42.696;23.350;2022-12-29T01:15:19;31.05;;;14.98;;
40707;SDS011;26392;42.696;23.350;2022-12-29T01:17:44;31.25;;;16.05;;
40707;SDS011;26392;42.696;23.350;2022-12-29T01:20:10;29.70;;;15.15;;
40707;SDS011;26392;42.696;23.350;2022-12-29T01:22:36;31.80;;;15.35;;
40707;SDS011;26392;42.696;23.350;2022-12-29T01:25:02;30.25;;;14.93;;
40707;SDS011;26392;42.696;23.350;2022-12-29T01:27:28;26.27;;;14.45;;
40707;SDS011;26392;42.696;23.350;2022-12-29T01:29:53;29.17;;;14.32;;
40707;SDS011;26392;42.696;23.350;2022-12-29T01:32:19;34.03;;;14.88;;
40707;SDS011;26392;42.696;23.350;2022-12-29T01:34:44;26.70;;;14.88;;
40707;SDS011;26392;42.696;23.350;2022-12-29T01:37:10;29.80;;;13.98;;
40707;SDS011;26392;42.696;23.350;2022-12-29T01:39:35;24.85;;;13.77;;
40707;SDS011;26392;42.696;23.350;2022-12-29T01:42:01;24.92;;;13.70;;
40707;SDS011;26392;42.696;23.350;2022-12-29T01:44:46;30.17;;;14.25;;
40707;SDS011;26392;42.696;23.350;2022-12-29T01:47:34;30.88;;;14.27;;
40707;SDS011;26392;42.696;23.350;2022-12-29T01:50:10;29.88;;;14.60;;
40707;SDS011;26392;42.696;23.350;2022-12-29T01:52:42;30.77;;;14.13;;
40707;SDS011;26392;42.696;23.350;2022-12-29T01:55:14;29.42;;;13.63;;
40707;SDS011;26392;42.696;23.350;2022-12-29T01:57:40;30.13;;;14.48;;
40707;SDS011;26392;42.696;23.350;2022-12-29T02:00:10;29.30;;;15.40;;
40707;SDS011;26392;42.696;23.350;2022-12-29T02:02:38;28.73;;;14.23;;
40707;SDS011;26392;42.696;23.350;2022-12-29T02:05:10;31.08;;;15.15;;
40707;SDS011;26392;42.696;23.350;2022-12-29T02:07:41;30.10;;;14.20;;
40707;SDS011;26392;42.696;23.350;2022-12-29T02:10:07;32.03;;;14.40;;
40707;SDS011;26392;42.696;23.350;2022-12-29T02:12:33;28.38;;;14.65;;
40707;SDS011;26392;42.696;23.350;2022-12-29T02:14:59;29.75;;;14.68;;
40707;SDS011;26392;42.696;23.350;2022-12-29T02:18:10;31.25;;;15.48;;
40707;SDS011;26392;42.696;23.350;2022-12-29T02:31:58;29.73;;;15.23;;
40707;SDS011;26392;42.696;23.350;2022-12-29T02:35:01;29.92;;;15.35;;
40707;SDS011;26392;42.696;23.350;2022-12-29T02:37:39;32.55;;;15.13;;
40707;SDS011;26392;42.696;23.350;2022-12-29T02:43:01;29.30;;;15.25;;
40707;SDS011;26392;42.696;23.350;2022-12-29T02:45:31;31.55;;;15.13;;
40707;SDS011;26392;42.696;23.350;2022-12-29T02:51:02;26.63;;;13.27;;
40707;SDS011;26392;42.696;23.350;2022-12-29T02:53:29;27.80;;;14.57;;
40707;SDS011;26392;42.696;23.350;2022-12-29T02:56:16;29.75;;;15.30;;
40707;SDS011;26392;42.696;23.350;2022-12-29T02:58:42;30.88;;;14.77;;
40707;SDS011;26392;42.696;23.350;2022-12-29T03:11:32;31.15;;;14.88;;
40707;SDS011;26392;42.696;23.350;2022-12-29T03:17:29;34.92;;;15.80;;
40707;SDS011;26392;42.696;23.350;2022-12-29T03:20:08;30.05;;;15.77;;
40707;SDS011;26392;42.696;23.350;2022-12-29T03:22:41;32.28;;;15.23;;
40707;SDS011;26392;42.696;23.350;2022-12-29T03:25:13;35.10;;;15.95;;
40707;SDS011;26392;42.696;23.350;2022-12-29T03:27:45;31.10;;;16.50;;
40707;SDS011;26392;42.696;23.350;2022-12-29T03:30:14;34.78;;;15.95;;
40707;SDS011;26392;42.696;23.350;2022-12-29T03:32:42;34.25;;;15.90;;
40707;SDS011;26392;42.696;23.350;2022-12-29T03:35:12;34.15;;;16.85;;
40707;SDS011;26392;42.696;23.350;2022-12-29T03:37:43;33.33;;;15.82;;
40707;SDS011;26392;42.696;23.350;2022-12-29T03:40:36;37.40;;;15.30;;
40707;SDS011;26392;42.696;23.350;2022-12-29T03:43:05;32.83;;;16.48;;
40707;SDS011;26392;42.696;23.350;2022-12-29T03:45:30;38.78;;;17.77;;
40707;SDS011;26392;42.696;23.350;2022-12-29T03:47:56;34.28;;;15.63;;
40707;SDS011;26392;42.696;23.350;2022-12-29T03:50:21;34.25;;;15.73;;
40707;SDS011;26392;42.696;23.350;2022-12-29T03:52:46;38.15;;;18.17;;
40707;SDS011;26392;42.696;23.350;2022-12-29T03:55:12;35.15;;;17.42;;
40707;SDS011;26392;42.696;23.350;2022-12-29T03:57:37;40.03;;;17.00;;
40707;SDS011;26392;42.696;23.350;2022-12-29T04:00:04;37.33;;;17.52;;
40707;SDS011;26392;42.696;23.350;2022-12-29T04:02:30;42.25;;;18.17;;
40707;SDS011;26392;42.696;23.350;2022-12-29T04:04:56;38.90;;;17.15;;
40707;SDS011;26392;42.696;23.350;2022-12-29T04:07:21;36.72;;;18.17;;
40707;SDS011;26392;42.696;23.350;2022-12-29T04:09:46;34.35;;;17.38;;
40707;SDS011;26392;42.696;23.350;2022-12-29T04:12:12;39.75;;;17.83;;
40707;SDS011;26392;42.696;23.350;2022-12-29T04:14:38;33.88;;;17.27;;
40707;SDS011;26392;42.696;23.350;2022-12-29T04:17:03;35.80;;;17.65;;
40707;SDS011;26392;42.696;23.350;2022-12-29T04:19:29;36.92;;;17.27;;
40707;SDS011;26392;42.696;23.350;2022-12-29T04:21:54;39.35;;;17.45;;
40707;SDS011;26392;42.696;23.350;2022-12-29T04:24:19;51.05;;;19.02;;
40707;SDS011;26392;42.696;23.350;2022-12-29T04:26:45;33.72;;;17.27;;
40707;SDS011;26392;42.696;23.350;2022-12-29T04:29:10;32.78;;;16.63;;
40707;SDS011;26392;42.696;23.350;2022-12-29T04:31:36;39.53;;;18.20;;
40707;SDS011;26392;42.696;23.350;2022-12-29T04:34:01;39.67;;;18.55;;
40707;SDS011;26392;42.696;23.350;2022-12-29T04:36:27;45.75;;;18.20;;
40707;SDS011;26392;42.696;23.350;2022-12-29T04:38:52;36.40;;;17.77;;
40707;SDS011;26392;42.696;23.350;2022-12-29T04:41:17;38.63;;;18.17;;
40707;SDS011;26392;42.696;23.350;2022-12-29T04:43:43;42.80;;;18.48;;
40707;SDS011;26392;42.696;23.350;2022-12-29T04:46:08;33.20;;;16.80;;
40707;SDS011;26392;42.696;23.350;2022-12-29T04:48:34;41.95;;;17.40;;
40707;SDS011;26392;42.696;23.350;2022-12-29T04:50:59;37.25;;;17.75;;
40707;SDS011;26392;42.696;23.350;2022-12-29T04:53:25;33.80;;;14.55;;
40707;SDS011;26392;42.696;23.350;2022-12-29T04:55:51;34.80;;;16.50;;
40707;SDS011;26392;42.696;23.350;2022-12-29T04:58:17;32.05;;;16.05;;
40707;SDS011;26392;42.696;23.350;2022-12-29T05:00:43;34.13;;;15.63;;
40707;SDS011;26392;42.696;23.350;2022-12-29T05:03:09;26.55;;;14.27;;
40707;SDS011;26392;42.696;23.350;2022-12-29T05:05:34;31.20;;;15.48;;
40707;SDS011;26392;42.696;23.350;2022-12-29T05:07:59;36.28;;;16.48;;
40707;SDS011;26392;42.696;23.350;2022-12-29T05:10:25;31.70;;;15.45;;
40707;SDS011;26392;42.696;23.350;2022-12-29T05:12:50;28.67;;;15.02;;
40707;SDS011;26392;42.696;23.350;2022-12-29T05:15:16;27.90;;;14.20;;
40707;SDS011;26392;42.696;23.350;2022-12-29T05:20:41;27.38;;;13.05;;
40707;SDS011;26392;42.696;23.350;2022-12-29T05:23:06;28.48;;;14.52;;
40707;SDS011;26392;42.696;23.350;2022-12-29T05:25:32;23.63;;;13.25;;
40707;SDS011;26392;42.696;23.350;2022-12-29T05:27:57;27.08;;;13.07;;
40707;SDS011;26392;42.696;23.350;2022-12-29T05:30:22;24.30;;;12.23;;
40707;SDS011;26392;42.696;23.350;2022-12-29T05:32:48;26.88;;;13.10;;
40707;SDS011;26392;42.696;23.350;2022-12-29T05:35:14;27.60;;;13.00;;
40707;SDS011;26392;42.696;23.350;2022-12-29T05:37:39;24.40;;;12.85;;
40707;SDS011;26392;42.696;23.350;2022-12-29T05:40:05;22.92;;;12.80;;
40707;SDS011;26392;42.696;23.350;2022-12-29T05:42:31;24.30;;;12.45;;
40707;SDS011;26392;42.696;23.350;2022-12-29T05:44:56;25.48;;;13.82;;
40707;SDS011;26392;42.696;23.350;2022-12-29T05:47:21;28.80;;;14.30;;
40707;SDS011;26392;42.696;23.350;2022-12-29T05:49:47;27.33;;;14.73;;
40707;SDS011;26392;42.696;23.350;2022-12-29T05:55:09;28.92;;;14.40;;
40707;SDS011;26392;42.696;23.350;2022-12-29T05:57:34;33.13;;;14.75;;
40707;SDS011;26392;42.696;23.350;2022-12-29T06:00:00;34.30;;;16.20;;
40707;SDS011;26392;42.696;23.350;2022-12-29T06:02:26;32.92;;;16.30;;
40707;SDS011;26392;42.696;23.350;2022-12-29T06:04:51;36.15;;;16.42;;
40707;SDS011;26392;42.696;23.350;2022-12-29T06:07:16;36.95;;;18.08;;
40707;SDS011;26392;42.696;23.350;2022-12-29T06:09:42;42.33;;;19.85;;
40707;SDS011;26392;42.696;23.350;2022-12-29T06:12:07;37.53;;;18.60;;
40707;SDS011;26392;42.696;23.350;2022-12-29T06:14:32;45.78;;;19.00;;
40707;SDS011;26392;42.696;23.350;2022-12-29T06:16:58;36.35;;;17.23;;
40707;SDS011;26392;42.696;23.350;2022-12-29T06:19:24;35.25;;;17.13;;
40707;SDS011;26392;42.696;23.350;2022-12-29T06:21:50;35.53;;;17.27;;
40707;SDS011;26392;42.696;23.350;2022-12-29T06:24:17;34.88;;;16.85;;
40707;SDS011;26392;42.696;23.350;2022-12-29T06:26:42;35.17;;;17.67;;
40707;SDS011;26392;42.696;23.350;2022-12-29T06:29:08;37.95;;;17.10;;
40707;SDS011;26392;42.696;23.350;2022-12-29T06:31:33;33.15;;;16.33;;
40707;SDS011;26392;42.696;23.350;2022-12-29T06:33:59;30.58;;;16.40;;
40707;SDS011;26392;42.696;23.350;2022-12-29T06:36:24;31.67;;;15.40;;
40707;SDS011;26392;42.696;23.350;2022-12-29T06:38:50;31.25;;;15.27;;
40707;SDS011;26392;42.696;23.350;2022-12-29T06:41:17;60.58;;;25.40;;
40707;SDS011;26392;42.696;23.350;2022-12-29T06:43:43;40.67;;;18.20;;
40707;SDS011;26392;42.696;23.350;2022-12-29T06:46:09;42.13;;;18.98;;
40707;SDS011;26392;42.696;23.350;2022-12-29T06:48:34;37.60;;;18.60;;
40707;SDS011;26392;42.696;23.350;2022-12-29T06:51:00;45.80;;;18.08;;
40707;SDS011;26392;42.696;23.350;2022-12-29T06:53:25;41.03;;;18.75;;
40707;SDS011;26392;42.696;23.350;2022-12-29T06:55:51;44.95;;;22.05;;
40707;SDS011;26392;42.696;23.350;2022-12-29T06:58:16;43.47;;;20.65;;
40707;SDS011;26392;42.696;23.350;2022-12-29T07:00:41;42.00;;;19.88;;
40707;SDS011;26392;42.696;23.350;2022-12-29T07:03:07;45.53;;;20.42;;
40707;SDS011;26392;42.696;23.350;2022-12-29T07:05:32;40.70;;;20.50;;
40707;SDS011;26392;42.696;23.350;2022-12-29T07:07:58;38.78;;;19.60;;
40707;SDS011;26392;42.696;23.350;2022-12-29T07:10:23;55.92;;;22.90;;
40707;SDS011;26392;42.696;23.350;2022-12-29T07:12:49;48.30;;;21.40;;
40707;SDS011;26392;42.696;23.350;2022-12-29T07:15:15;36.67;;;18.58;;
40707;SDS011;26392;42.696;23.350;2022-12-29T07:17:40;38.33;;;20.13;;
40707;SDS011;26392;42.696;23.350;2022-12-29T07:20:06;44.20;;;19.13;;
40707;SDS011;26392;42.696;23.350;2022-12-29T07:22:32;42.67;;;19.40;;
40707;SDS011;26392;42.696;23.350;2022-12-29T07:24:58;37.70;;;18.58;;
40707;SDS011;26392;42.696;23.350;2022-12-29T07:27:23;37.60;;;18.42;;
40707;SDS011;26392;42.696;23.350;2022-12-29T07:29:48;34.90;;;18.17;;
40707;SDS011;26392;42.696;23.350;2022-12-29T07:32:14;34.67;;;17.05;;
40707;SDS011;26392;42.696;23.350;2022-12-29T07:34:39;41.85;;;18.58;;
40707;SDS011;26392;42.696;23.350;2022-12-29T07:37:05;41.03;;;18.60;;
40707;SDS011;26392;42.696;23.350;2022-12-29T07:39:30;40.08;;;17.98;;
40707;SDS011;26392;42.696;23.350;2022-12-29T07:41:56;36.42;;;17.85;;
40707;SDS011;26392;42.696;23.350;2022-12-29T07:44:21;39.25;;;18.27;;
40707;SDS011;26392;42.696;23.350;2022-12-29T07:46:46;35.10;;;19.00;;
40707;SDS011;26392;42.696;23.350;2022-12-29T07:49:12;36.15;;;17.30;;
40707;SDS011;26392;42.696;23.350;2022-12-29T07:51:37;39.72;;;18.83;;
40707;SDS011;26392;42.696;23.350;2022-12-29T07:54:03;38.97;;;18.92;;
40707;SDS011;26392;42.696;23.350;2022-12-29T07:56:28;37.42;;;18.92;;
40707;SDS011;26392;42.696;23.350;2022-12-29T07:58:54;31.83;;;17.08;;
40707;SDS011;26392;42.696;23.350;2022-12-29T08:01:19;38.47;;;18.80;;
40707;SDS011;26392;42.696;23.350;2022-12-29T08:03:45;40.50;;;19.23;;
40707;SDS011;26392;42.696;23.350;2022-12-29T08:06:11;38.80;;;18.38;;
40707;SDS011;26392;42.696;23.350;2022-12-29T08:08:36;40.35;;;18.25;;
40707;SDS011;26392;42.696;23.350;2022-12-29T08:11:02;31.10;;;17.55;;
40707;SDS011;26392;42.696;23.350;2022-12-29T08:13:27;44.35;;;18.63;;
40707;SDS011;26392;42.696;23.350;2022-12-29T08:15:53;37.97;;;17.77;;
40707;SDS011;26392;42.696;23.350;2022-12-29T08:18:18;30.13;;;15.48;;
40707;SDS011;26392;42.696;23.350;2022-12-29T08:20:43;31.25;;;16.00;;
40707;SDS011;26392;42.696;23.350;2022-12-29T08:23:09;33.47;;;18.08;;
40707;SDS011;26392;42.696;23.350;2022-12-29T08:25:34;37.25;;;19.20;;
40707;SDS011;26392;42.696;23.350;2022-12-29T08:27:59;32.53;;;16.45;;
40707;SDS011;26392;42.696;23.350;2022-12-29T08:30:25;32.70;;;16.42;;
40707;SDS011;26392;42.696;23.350;2022-12-29T08:32:50;35.50;;;16.42;;
40707;SDS011;26392;42.696;23.350;2022-12-29T08:35:16;30.60;;;15.60;;
40707;SDS011;26392;42.696;23.350;2022-12-29T08:37:41;31.42;;;16.30;;
40707;SDS011;26392;42.696;23.350;2022-12-29T08:40:06;34.03;;;16.08;;
40707;SDS011;26392;42.696;23.350;2022-12-29T08:42:32;31.17;;;15.90;;
40707;SDS011;26392;42.696;23.350;2022-12-29T08:44:58;32.63;;;17.15;;
40707;SDS011;26392;42.696;23.350;2022-12-29T08:47:24;33.05;;;17.50;;
40707;SDS011;26392;42.696;23.350;2022-12-29T08:49:50;32.97;;;16.45;;
40707;SDS011;26392;42.696;23.350;2022-12-29T08:52:16;31.80;;;16.10;;
40707;SDS011;26392;42.696;23.350;2022-12-29T08:54:41;31.30;;;15.63;;
40707;SDS011;26392;42.696;23.350;2022-12-29T08:57:06;32.60;;;16.95;;
40707;SDS011;26392;42.696;23.350;2022-12-29T08:59:32;33.42;;;17.35;;
40707;SDS011;26392;42.696;23.350;2022-12-29T09:01:57;32.88;;;15.48;;
40707;SDS011;26392;42.696;23.350;2022-12-29T09:04:23;28.88;;;15.55;;
40707;SDS011;26392;42.696;23.350;2022-12-29T09:06:48;29.67;;;16.05;;
40707;SDS011;26392;42.696;23.350;2022-12-29T09:09:14;28.42;;;15.93;;
40707;SDS011;26392;42.696;23.350;2022-12-29T09:11:40;28.90;;;15.52;;
40707;SDS011;26392;42.696;23.350;2022-12-29T09:14:06;30.55;;;15.70;;
40707;SDS011;26392;42.696;23.350;2022-12-29T09:16:31;28.92;;;15.75;;
40707;SDS011;26392;42.696;23.350;2022-12-29T09:18:57;31.02;;;15.43;;
40707;SDS011;26392;42.696;23.350;2022-12-29T09:21:22;33.65;;;17.60;;
40707;SDS011;26392;42.696;23.350;2022-12-29T09:23:48;31.27;;;16.85;;
40707;SDS011;26392;42.696;23.350;2022-12-29T09:26:14;31.40;;;16.08;;
40707;SDS011;26392;42.696;23.350;2022-12-29T09:28:40;33.90;;;17.08;;
40707;SDS011;26392;42.696;23.350;2022-12-29T09:31:06;32.72;;;14.98;;
40707;SDS011;26392;42.696;23.350;2022-12-29T09:33:31;31.52;;;16.63;;
40707;SDS011;26392;42.696;23.350;2022-12-29T09:36:00;30.02;;;15.20;;
40707;SDS011;26392;42.696;23.350;2022-12-29T09:38:26;31.95;;;16.40;;
40707;SDS011;26392;42.696;23.350;2022-12-29T09:40:53;31.27;;;16.48;;
40707;SDS011;26392;42.696;23.350;2022-12-29T09:51:23;35.90;;;15.48;;
40707;SDS011;26392;42.696;23.350;2022-12-29T09:53:56;31.98;;;16.25;;
40707;SDS011;26392;42.696;23.350;2022-12-29T09:56:25;31.73;;;16.17;;
40707;SDS011;26392;42.696;23.350;2022-12-29T10:04:09;29.15;;;15.73;;
40707;SDS011;26392;42.696;23.350;2022-12-29T10:06:51;31.00;;;16.88;;
40707;SDS011;26392;42.696;23.350;2022-12-29T10:17:24;31.40;;;16.60;;
40707;SDS011;26392;42.696;23.350;2022-12-29T10:25:25;34.95;;;16.30;;
40707;SDS011;26392;42.696;23.350;2022-12-29T10:27:53;34.47;;;16.58;;
40707;SDS011;26392;42.696;23.350;2022-12-29T10:30:24;31.80;;;15.63;;
40707;SDS011;26392;42.696;23.350;2022-12-29T10:32:57;28.17;;;14.90;;
40707;SDS011;26392;42.696;23.350;2022-12-29T10:35:30;30.80;;;15.23;;
40707;SDS011;26392;42.696;23.350;2022-12-29T10:40:29;26.00;;;14.27;;
40707;SDS011;26392;42.696;23.350;2022-12-29T10:43:01;29.20;;;15.98;;
40707;SDS011;26392;42.696;23.350;2022-12-29T10:45:37;30.98;;;15.13;;
40707;SDS011;26392;42.696;23.350;2022-12-29T10:50:34;30.20;;;16.65;;
40707;SDS011;26392;42.696;23.350;2022-12-29T10:53:00;30.38;;;15.63;;
40707;SDS011;26392;42.696;23.350;2022-12-29T10:55:32;28.42;;;16.13;;
40707;SDS011;26392;42.696;23.350;2022-12-29T10:58:02;32.25;;;16.65;;
40707;SDS011;26392;42.696;23.350;2022-12-29T11:00:31;29.75;;;15.65;;
40707;SDS011;26392;42.696;23.350;2022-12-29T11:08:23;28.88;;;14.85;;
40707;SDS011;26392;42.696;23.350;2022-12-29T11:11:25;36.65;;;18.35;;
40707;SDS011;26392;42.696;23.350;2022-12-29T11:13:55;33.25;;;17.23;;
40707;SDS011;26392;42.696;23.350;2022-12-29T11:16:30;29.52;;;16.20;;
40707;SDS011;26392;42.696;23.350;2022-12-29T11:18:57;32.55;;;16.30;;
40707;SDS011;26392;42.696;23.350;2022-12-29T11:23:56;34.75;;;15.85;;
40707;SDS011;26392;42.696;23.350;2022-12-29T11:26:24;33.95;;;16.33;;
40707;SDS011;26392;42.696;23.350;2022-12-29T11:29:09;32.55;;;17.88;;
40707;SDS011;26392;42.696;23.350;2022-12-29T11:31:47;31.60;;;15.80;;
40707;SDS011;26392;42.696;23.350;2022-12-29T11:34:17;33.97;;;16.95;;
40707;SDS011;26392;42.696;23.350;2022-12-29T11:37:14;29.17;;;16.27;;
40707;SDS011;26392;42.696;23.350;2022-12-29T11:39:49;33.97;;;16.80;;
40707;SDS011;26392;42.696;23.350;2022-12-29T11:42:20;29.00;;;15.65;;
40707;SDS011;26392;42.696;23.350;2022-12-29T11:44:55;28.42;;;14.57;;
40707;SDS011;26392;42.696;23.350;2022-12-29T11:47:30;27.80;;;14.65;;
40707;SDS011;26392;42.696;23.350;2022-12-29T11:49:59;29.85;;;15.35;;
40707;SDS011;26392;42.696;23.350;2022-12-29T11:52:28;29.77;;;13.57;;
40707;SDS011;26392;42.696;23.350;2022-12-29T11:54:58;24.73;;;14.48;;
40707;SDS011;26392;42.696;23.350;2022-12-29T11:57:25;25.15;;;13.90;;
40707;SDS011;26392;42.696;23.350;2022-12-29T11:59:53;25.92;;;14.10;;
40707;SDS011;26392;42.696;23.350;2022-12-29T12:10:43;33.45;;;15.93;;
40707;SDS011;26392;42.696;23.350;2022-12-29T12:15:55;27.67;;;14.93;;
40707;SDS011;26392;42.696;23.350;2022-12-29T12:29:46;31.73;;;16.70;;
40707;SDS011;26392;42.696;23.350;2022-12-29T12:32:55;35.67;;;16.48;;
40707;SDS011;26392;42.696;23.350;2022-12-29T12:35:29;30.13;;;15.63;;
40707;SDS011;26392;42.696;23.350;2022-12-29T12:40:34;29.87;;;16.30;;
40707;SDS011;26392;42.696;23.350;2022-12-29T13:00:11;27.63;;;14.77;;
40707;SDS011;26392;42.696;23.350;2022-12-29T13:02:59;30.73;;;14.68;;
40707;SDS011;26392;42.696;23.350;2022-12-29T13:16:48;28.17;;;14.98;;
40707;SDS011;26392;42.696;23.350;2022-12-29T13:27:10;41.67;;;15.80;;
40707;SDS011;26392;42.696;23.350;2022-12-29T13:35:32;32.13;;;15.57;;
40707;SDS011;26392;42.696;23.350;2022-12-29T13:38:03;29.98;;;15.35;;
40707;SDS011;26392;42.696;23.350;2022-12-29T13:43:04;28.63;;;15.23;;
40707;SDS011;26392;42.696;23.350;2022-12-29T13:45:31;31.38;;;15.90;;
40707;SDS011;26392;42.696;23.350;2022-12-29T13:50:54;33.75;;;16.40;;
40707;SDS011;26392;42.696;23.350;2022-12-29T13:55:57;27.95;;;15.20;;
40707;SDS011;26392;42.696;23.350;2022-12-29T13:58:34;32.58;;;15.98;;
40707;SDS011;26392;42.696;23.350;2022-12-29T14:03:46;33.88;;;17.63;;
40707;SDS011;26392;42.696;23.350;2022-12-29T14:08:41;37.17;;;17.85;;
40707;SDS011;26392;42.696;23.350;2022-12-29T14:11:08;35.78;;;17.85;;
40707;SDS011;26392;42.696;23.350;2022-12-29T14:13:39;34.40;;;17.77;;
40707;SDS011;26392;42.696;23.350;2022-12-29T14:16:08;37.65;;;18.77;;
40707;SDS011;26392;42.696;23.350;2022-12-29T14:18:49;35.10;;;18.67;;
40707;SDS011;26392;42.696;23.350;2022-12-29T14:33:40;46.67;;;22.15;;
40707;SDS011;26392;42.696;23.350;2022-12-29T14:36:27;39.97;;;19.92;;
40707;SDS011;26392;42.696;23.350;2022-12-29T14:38:59;46.78;;;21.60;;
40707;SDS011;26392;42.696;23.350;2022-12-29T14:41:40;60.92;;;23.88;;
40707;SDS011;26392;42.696;23.350;2022-12-29T14:49:22;45.83;;;19.40;;
40707;SDS011;26392;42.696;23.350;2022-12-29T14:51:52;47.13;;;24.67;;
40707;SDS011;26392;42.696;23.350;2022-12-29T14:57:04;46.47;;;20.42;;
40707;SDS011;26392;42.696;23.350;2022-12-29T14:59:33;39.67;;;20.35;;
40707;SDS011;26392;42.696;23.350;2022-12-29T15:02:01;36.85;;;19.88;;
40707;SDS011;26392;42.696;23.350;2022-12-29T15:04:33;39.85;;;20.60;;
40707;SDS011;26392;42.696;23.350;2022-12-29T15:07:00;38.33;;;20.42;;
40707;SDS011;26392;42.696;23.350;2022-12-29T15:09:35;44.33;;;20.67;;
40707;SDS011;26392;42.696;23.350;2022-12-29T15:12:05;43.80;;;20.63;;
40707;SDS011;26392;42.696;23.350;2022-12-29T15:14:38;44.92;;;20.85;;
40707;SDS011;26392;42.696;23.350;2022-12-29T15:19:56;40.80;;;20.58;;
40707;SDS011;26392;42.696;23.350;2022-12-29T15:22:22;48.40;;;22.60;;
40707;SDS011;26392;42.696;23.350;2022-12-29T15:24:52;51.17;;;21.05;;
40707;SDS011;26392;42.696;23.350;2022-12-29T15:27:23;44.63;;;21.20;;
40707;SDS011;26392;42.696;23.350;2022-12-29T15:30:00;37.88;;;20.67;;
40707;SDS011;26392;42.696;23.350;2022-12-29T15:32:29;46.05;;;22.73;;
40707;SDS011;26392;42.696;23.350;2022-12-29T15:35:09;47.50;;;21.80;;
40707;SDS011;26392;42.696;23.350;2022-12-29T15:38:00;51.08;;;23.23;;
40707;SDS011;26392;42.696;23.350;2022-12-29T15:40:38;47.53;;;23.15;;
40707;SDS011;26392;42.696;23.350;2022-12-29T15:46:08;55.83;;;23.58;;
40707;SDS011;26392;42.696;23.350;2022-12-29T15:48:36;52.65;;;23.80;;
40707;SDS011;26392;42.696;23.350;2022-12-29T15:51:04;49.22;;;23.85;;
40707;SDS011;26392;42.696;23.350;2022-12-29T15:53:42;52.33;;;25.65;;
40707;SDS011;26392;42.696;23.350;2022-12-29T15:56:12;65.78;;;27.13;;
40707;SDS011;26392;42.696;23.350;2022-12-29T15:58:45;59.33;;;26.15;;
40707;SDS011;26392;42.696;23.350;2022-12-29T16:04:07;65.95;;;27.77;;
40707;SDS011;26392;42.696;23.350;2022-12-29T16:06:35;69.10;;;30.27;;
40707;SDS011;26392;42.696;23.350;2022-12-29T16:09:03;70.63;;;28.65;;
40707;SDS011;26392;42.696;23.350;2022-12-29T16:11:40;79.20;;;34.58;;
40707;SDS011;26392;42.696;23.350;2022-12-29T16:14:10;83.90;;;32.13;;
40707;SDS011;26392;42.696;23.350;2022-12-29T16:16:41;99.55;;;41.45;;
40707;SDS011;26392;42.696;23.350;2022-12-29T16:19:26;85.30;;;38.47;;
40707;SDS011;26392;42.696;23.350;2022-12-29T16:24:20;189.75;;;81.63;;
40707;SDS011;26392;42.696;23.350;2022-12-29T16:26:51;217.95;;;94.82;;
40707;SDS011;26392;42.696;23.350;2022-12-29T16:29:31;318.42;;;143.68;;
40707;SDS011;26392;42.696;23.350;2022-12-29T16:31:57;295.58;;;134.18;;
40707;SDS011;26392;42.696;23.350;2022-12-29T16:34:33;305.48;;;128.70;;
40707;SDS011;26392;42.696;23.350;2022-12-29T16:42:46;174.93;;;76.43;;
40707;SDS011;26392;42.696;23.350;2022-12-29T16:47:47;186.90;;;80.72;;
40707;SDS011;26392;42.696;23.350;2022-12-29T16:50:25;186.30;;;80.75;;
40707;SDS011;26392;42.696;23.350;2022-12-29T16:52:52;200.50;;;85.65;;
40707;SDS011;26392;42.696;23.350;2022-12-29T16:55:18;214.90;;;90.75;;
40707;SDS011;26392;42.696;23.350;2022-12-29T16:57:45;171.23;;;75.55;;
40707;SDS011;26392;42.696;23.350;2022-12-29T17:00:22;276.95;;;119.60;;
40707;SDS011;26392;42.696;23.350;2022-12-29T17:02:51;297.83;;;131.68;;
40707;SDS011;26392;42.696;23.350;2022-12-29T17:05:21;223.50;;;97.18;;
40707;SDS011;26392;42.696;23.350;2022-12-29T17:07:46;210.82;;;88.20;;
40707;SDS011;26392;42.696;23.350;2022-12-29T17:10:13;184.57;;;80.97;;
40707;SDS011;26392;42.696;23.350;2022-12-29T17:12:39;169.75;;;74.38;;
40707;SDS011;26392;42.696;23.350;2022-12-29T17:15:10;181.98;;;77.65;;
40707;SDS011;26392;42.696;23.350;2022-12-29T17:17:46;220.23;;;92.07;;
40707;SDS011;26392;42.696;23.350;2022-12-29T17:20:15;142.52;;;65.72;;
40707;SDS011;26392;42.696;23.350;2022-12-29T17:22:49;116.85;;;50.47;;
40707;SDS011;26392;42.696;23.350;2022-12-29T17:25:19;128.82;;;54.38;;
40707;SDS011;26392;42.696;23.350;2022-12-29T17:30:14;250.02;;;102.53;;
40707;SDS011;26392;42.696;23.350;2022-12-29T17:32:43;163.38;;;69.53;;
40707;SDS011;26392;42.696;23.350;2022-12-29T17:35:14;144.30;;;62.58;;
40707;SDS011;26392;42.696;23.350;2022-12-29T17:37:40;152.65;;;65.75;;
40707;SDS011;26392;42.696;23.350;2022-12-29T17:40:06;168.20;;;78.43;;